Time;durP1;ratioP1;P1;durP2;ratioP2;P2;SDS_P1;SDS_P2;PMS_P1;PMS_P2;Temp;Humidity;BMP_temperature;BMP_pressure;BME280_temperature;BME280_humidity;BME280_pressure;Samples;Min_cycle;Max_cycle;Signal;HPM_P1;HPM_P2
2021/08/04 03:16:48;;;;;;;;;;;;;;;6.47;91.91;99332.09;5351991;22;20183;-87
2021/08/04 03:19:14;;;;;;;;;;;;;;;6.59;92.78;99336.09;5083686;28;19994;-87
2021/08/04 03:21:40;;;;;;;;;;;;;;;6.51;93.36;99330.22;5082629;28;19919;-87
2021/08/04 03:24:05;;;;;;;;;;;;;;;6.55;93.23;99334.47;5100627;28;19931;-87
2021/08/04 03:26:31;;;;;;;;;;;;;;;6.55;94.45;99342.38;5100534;28;19967;-87
2021/08/04 03:28:56;;;;;;;;;;;;;;;6.66;94.35;99334.13;5100412;28;19943;-87
2021/08/04 03:31:21;;;;;;;;;;;;;;;6.67;95.17;99336.69;5100478;28;19985;-87
2021/08/04 03:33:47;;;;;;;;;;;;;;;6.59;94.83;99343.13;5099548;28;19983;-87
2021/08/04 03:36:12;;;;;;;;;;;;;;;6.62;94.18;99338.63;5099042;28;19912;-88
2021/08/04 03:38:37;;;;;;;;;;;;;;;6.64;97.02;99341.22;5098941;28;19930;-85
2021/08/04 03:41:03;;;;;;;;;;;;;;;7.21;100.00;99342.72;5082126;28;20014;-87
2021/08/04 03:43:28;;;;;;;;;;;;;;;7.37;100.00;99342.16;5099550;28;19921;-87
2021/08/04 03:45:53;;;;;;;;;;;;;;;7.17;100.00;99340.25;5100398;28;20007;-87
2021/08/04 03:48:20;;;;;;;;;;;;;;;7.16;100.00;99333.25;5100232;28;19920;-87
2021/08/04 03:50:45;;;;;;;;;;;;;;;7.06;100.00;99338.84;5082561;28;20063;-87
2021/08/04 03:53:10;;;;;;;;;;;;;;;6.98;100.00;99338.25;5100981;28;19931;-87
2021/08/04 03:55:36;;;;;;;;;;;;;;;7.26;100.00;99342.56;5099639;28;19967;-88
2021/08/04 03:58:01;;;;;;;;;;;;;;;7.75;100.00;99335.44;5099568;28;19950;-88
2021/08/04 04:00:27;;;;;;;;;;;;;;;7.92;100.00;99339.22;5099007;28;19924;-87
2021/08/04 04:02:52;;;;;;;;;;;;;;;7.96;100.00;99340.78;5099017;28;20023;-87
2021/08/04 04:05:17;;;;;;;;;;;;;;;7.62;100.00;99334.19;5098851;28;19924;-86
2021/08/04 04:07:43;;;;;;;;;;;;;;;7.53;100.00;99337.16;5091925;28;19959;-88
2021/08/04 04:10:08;;;;;;;;;;;;;;;7.51;100.00;99341.66;5099761;28;19931;-88
2021/08/04 04:12:34;;;;;;;;;;;;;;;7.37;100.00;99336.88;5099534;28;19969;-87
2021/08/04 04:14:59;;;;;;;;;;;;;;;7.39;100.00;99340.34;5082040;28;19949;-86
2021/08/04 04:17:25;;;;;;;;;;;;;;;7.23;100.00;99338.25;5100331;28;19927;-88
2021/08/04 04:19:50;;;;;;;;;;;;;;;7.18;100.00;99341.97;5098683;28;20298;-88
2021/08/04 04:22:16;;;;;;;;;;;;;;;7.18;100.00;99349.88;5080932;28;20009;-88
2021/08/04 04:24:41;;;;;;;;;;;;;;;7.28;100.00;99353.91;5099527;28;19920;-88
2021/08/04 04:27:07;;;;;;;;;;;;;;;7.09;100.00;99358.97;5099628;28;19920;-88
2021/08/04 04:29:32;;;;;;;;;;;;;;;7.05;100.00;99360.84;5098210;28;19928;-87
2021/08/04 04:31:57;;;;;;;;;;;;;;;7.03;100.00;99359.19;5099744;28;19931;-88
2021/08/04 04:34:23;;;;;;;;;;;;;;;6.98;100.00;99359.34;5081582;28;19946;-86
2021/08/04 04:36:48;;;;;;;;;;;;;;;6.98;100.00;99355.84;5098954;28;20028;-85
2021/08/04 04:39:13;;;;;;;;;;;;;;;6.90;99.75;99359.59;5080711;28;19985;-86
2021/08/04 04:41:39;;;;;;;;;;;;;;;7.00;100.00;99354.88;5098221;28;19920;-86
2021/08/04 04:44:04;;;;;;;;;;;;;;;6.93;100.00;99363.91;5098390;28;19920;-87
2021/08/04 04:46:30;;;;;;;;;;;;;;;6.81;99.30;99359.06;5081279;28;19928;-87
2021/08/04 04:48:55;;;;;;;;;;;;;;;6.73;99.68;99362.84;5099004;28;19942;-87
2021/08/04 07:52:19;;;;;;;;;;;;;;;6.27;97.16;99384.50;3184250;26;20011;-88
2021/08/04 07:54:44;;;;;;;;;;;;;;;6.32;97.58;99386.09;5099836;28;20011;-86
2021/08/04 07:57:09;;;;;;;;;;;;;;;6.26;96.82;99381.03;5099775;28;19920;-88
2021/08/04 07:59:35;;;;;;;;;;;;;;;6.30;97.54;99387.94;5099675;28;20258;-88
2021/08/04 08:02:03;;;;;;;;;;;;;;;6.23;96.89;99383.75;5101790;28;19927;-88
2021/08/04 08:04:30;;;;;;;;;;;;;;;6.17;96.28;99381.31;5101754;28;20290;-87
2021/08/04 08:06:56;;;;;;;;;;;;;;;6.13;97.71;99385.81;5082717;28;19920;-88
2021/08/04 08:09:21;;;;;;;;;;;;;;;6.25;96.86;99381.94;5082697;28;19931;-86
2021/08/04 08:11:47;;;;;;;;;;;;;;;6.23;96.53;99381.13;5099760;28;19920;-88
2021/08/04 08:14:12;;;;;;;;;;;;;;;6.23;97.07;99377.63;5082432;28;20221;-88
2021/08/04 08:16:38;;;;;;;;;;;;;;;6.31;96.64;99379.09;5082248;28;19920;-87
2021/08/04 08:19:03;;;;;;;;;;;;;;;6.23;97.43;99383.75;5099281;28;19977;-87
2021/08/04 08:21:28;;;;;;;;;;;;;;;6.20;96.78;99378.59;5099680;28;19924;-88
2021/08/04 08:23:54;;;;;;;;;;;;;;;6.12;96.87;99381.44;5097464;28;20286;-87
2021/08/04 08:26:23;;;;;;;;;;;;;;;6.17;97.26;99383.94;5097963;28;19923;-87
2021/08/04 08:28:48;;;;;;;;;;;;;;;6.25;96.96;99388.97;5099528;28;19965;-87
2021/08/04 08:31:14;;;;;;;;;;;;;;;6.25;96.03;99386.34;5099637;28;19928;-87
2021/08/04 08:33:39;;;;;;;;;;;;;;;6.06;96.66;99381.63;5099426;28;19919;-87
2021/08/04 08:36:04;;;;;;;;;;;;;;;6.08;96.77;99376.31;5096838;28;19929;-87
2021/08/04 08:38:30;;;;;;;;;;;;;;;6.25;97.21;99384.56;5078848;28;19932;-87
2021/08/04 08:40:55;;;;;;;;;;;;;;;6.18;96.23;99380.41;5081772;28;19924;-87
2021/08/04 08:43:20;;;;;;;;;;;;;;;6.17;97.00;99373.41;5099344;28;20237;-87
2021/08/04 08:45:50;;;;;;;;;;;;;;;6.09;97.14;99375.44;5098108;28;20204;-87
2021/08/04 08:48:16;;;;;;;;;;;;;;;6.04;97.23;99364.19;5061707;28;19978;-88
2021/08/04 08:50:42;;;;;;;;;;;;;;;6.16;97.77;99367.31;5061618;28;19920;-87
2021/08/04 08:53:07;;;;;;;;;;;;;;;6.20;96.82;99368.06;5086576;28;19923;-86
2021/08/04 08:55:33;;;;;;;;;;;;;;;6.13;96.57;99369.19;5084643;28;19935;-88
2021/08/04 08:57:58;;;;;;;;;;;;;;;6.19;97.34;99366.38;5081573;28;19920;-88
2021/08/04 09:00:23;;;;;;;;;;;;;;;6.15;97.48;99362.94;5091165;28;20071;-88
2021/08/04 09:02:49;;;;;;;;;;;;;;;6.13;98.32;99361.28;5082843;28;19951;-88
2021/08/04 09:05:16;;;;;;;;;;;;;;;6.18;97.21;99357.59;5099228;28;20202;-89
2021/08/04 09:07:42;;;;;;;;;;;;;;;6.20;97.55;99356.69;5098891;28;19920;-87
2021/08/04 09:10:20;;;;;;;;;;;;;;;6.13;96.45;99351.63;5081284;28;19974;-87
2021/08/04 09:12:46;;;;;;;;;;;;;;;6.20;95.92;99349.66;5098243;28;19928;-88
2021/08/04 09:15:32;;;;;;;;;;;;;;;6.15;96.51;99354.19;5080204;28;20277;-87
2021/08/04 09:18:04;;;;;;;;;;;;;;;6.27;96.86;99347.66;5061942;28;20254;-87
2021/08/04 09:20:30;;;;;;;;;;;;;;;6.18;96.24;99354.94;5099227;28;19975;-86
2021/08/04 09:22:58;;;;;;;;;;;;;;;6.26;96.92;99356.50;5098373;28;19920;-88
2021/08/04 09:25:25;;;;;;;;;;;;;;;6.24;97.96;99343.38;5080740;28;19979;-87
2021/08/04 09:27:55;;;;;;;;;;;;;;;6.26;97.73;99341.56;5098820;28;19920;-88
2021/08/04 09:30:25;;;;;;;;;;;;;;;6.16;99.01;99345.41;5098805;28;19928;-87
2021/08/04 09:32:51;;;;;;;;;;;;;;;6.25;98.88;99338.97;5076920;28;20195;-88
2021/08/04 09:35:17;;;;;;;;;;;;;;;6.21;98.00;99345.22;5080697;28;19920;-86
2021/08/04 09:37:43;;;;;;;;;;;;;;;6.28;97.84;99344.16;5072440;28;19924;-88
2021/08/04 09:40:10;;;;;;;;;;;;;;;6.17;98.14;99344.47;5081358;28;19928;-87
2021/08/04 09:42:38;;;;;;;;;;;;;;;6.17;98.61;99331.31;5080703;28;20205;-88
2021/08/04 09:45:04;;;;;;;;;;;;;;;6.31;98.79;99333.53;5098532;28;19920;-87
2021/08/04 09:47:31;;;;;;;;;;;;;;;6.24;97.93;99329.34;5098171;28;19969;-88
2021/08/04 09:49:57;;;;;;;;;;;;;;;6.18;98.03;99333.06;5080564;28;20010;-87
2021/08/04 09:52:25;;;;;;;;;;;;;;;6.23;97.79;99320.59;5098831;28;19924;-88
2021/08/04 09:54:51;;;;;;;;;;;;;;;6.25;98.37;99324.03;5101571;28;19946;-87
2021/08/04 09:57:16;;;;;;;;;;;;;;;6.20;98.13;99325.13;5100572;28;19958;-86
2021/08/04 10:00:02;;;;;;;;;;;;;;;6.24;98.29;99327.59;5080218;28;20322;-88
2021/08/04 10:02:30;;;;;;;;;;;;;;;6.15;99.61;99333.16;5076899;28;19993;-88
2021/08/04 10:05:17;;;;;;;;;;;;;;;6.27;98.88;99322.25;5101409;28;20015;-88
2021/08/04 10:08:09;;;;;;;;;;;;;;;6.26;97.58;99317.88;5095135;28;19950;-87
2021/08/04 10:10:34;;;;;;;;;;;;;;;6.22;97.57;99329.41;5097048;28;19920;-87
2021/08/04 10:13:01;;;;;;;;;;;;;;;6.21;97.40;99322.44;5102070;28;20210;-88
2021/08/04 10:15:27;;;;;;;;;;;;;;;6.26;97.69;99323.13;5084165;28;19931;-88
2021/08/04 10:17:52;;;;;;;;;;;;;;;6.26;97.28;99323.13;5083965;28;19920;-89
2021/08/04 10:20:18;;;;;;;;;;;;;;;6.26;98.24;99306.50;5102502;28;19924;-88
2021/08/04 10:22:44;;;;;;;;;;;;;;;6.44;97.01;99303.25;5102302;28;19928;-88
2021/08/04 10:25:10;;;;;;;;;;;;;;;6.15;98.24;99301.59;5101594;28;19969;-87
2021/08/04 10:27:35;;;;;;;;;;;;;;;6.20;98.83;99293.53;5102246;28;20024;-88
2021/08/04 10:30:01;;;;;;;;;;;;;;;6.19;98.77;99282.19;5084607;28;20354;-88
2021/08/04 10:32:31;;;;;;;;;;;;;;;6.19;99.31;99269.03;5084321;28;20008;-87
2021/08/04 10:34:57;;;;;;;;;;;;;;;6.27;97.46;99259.09;5101761;28;20369;-87
2021/08/04 10:37:23;;;;;;;;;;;;;;;6.33;96.42;99272.06;5101708;28;19939;-88
2021/08/04 10:39:49;;;;;;;;;;;;;;;6.32;96.35;99269.47;5084260;28;19927;-87
2021/08/04 10:45:24;;;;;;;;;;;;;;;6.32;97.08;99272.94;5104092;28;19930;-88
2021/08/04 10:47:56;;;;;;;;;;;;;;;6.36;96.28;99269.28;5096348;28;19993;-87
2021/08/04 10:50:21;;;;;;;;;;;;;;;6.28;97.52;99278.38;5101940;28;19931;-87
2021/08/04 10:53:01;;;;;;;;;;;;;;;6.25;97.09;99274.06;5085879;28;19920;-87
2021/08/04 10:55:28;;;;;;;;;;;;;;;6.21;97.10;99272.44;5095558;28;19919;-87
2021/08/04 10:58:05;;;;;;;;;;;;;;;6.10;97.05;99264.06;5101158;28;20006;-87
2021/08/04 11:00:31;;;;;;;;;;;;;;;6.27;96.12;99269.63;5098329;28;19931;-89
2021/08/04 11:02:57;;;;;;;;;;;;;;;6.25;96.41;99271.41;5082807;28;19935;-88
2021/08/04 11:05:22;;;;;;;;;;;;;;;6.13;96.84;99272.69;5082881;28;20295;-88
2021/08/04 11:08:07;;;;;;;;;;;;;;;6.17;96.54;99273.44;5083660;28;19935;-88
2021/08/04 11:10:38;;;;;;;;;;;;;;;6.23;97.59;99275.03;5082772;28;19920;-88
2021/08/04 11:13:04;;;;;;;;;;;;;;;6.20;97.29;99265.47;5100225;28;19920;-88
2021/08/04 11:15:31;;;;;;;;;;;;;;;6.23;96.47;99262.72;5082475;28;19930;-87
2021/08/04 11:18:06;;;;;;;;;;;;;;;6.17;95.02;99257.66;5083262;28;19928;-88
2021/08/04 11:20:32;;;;;;;;;;;;;;;6.12;96.09;99255.19;5083136;28;19951;-87
2021/08/04 11:22:58;;;;;;;;;;;;;;;6.21;97.07;99255.78;5100074;28;20340;-87
2021/08/04 11:25:33;;;;;;;;;;;;;;;6.28;96.49;99254.69;5100078;28;19924;-88
2021/08/04 11:27:58;;;;;;;;;;;;;;;6.21;96.64;99256.66;5100189;28;19920;-88
2021/08/04 11:30:33;;;;;;;;;;;;;;;6.14;96.03;99256.00;5099900;28;19930;-87
2021/08/04 11:33:17;;;;;;;;;;;;;;;6.10;97.37;99246.50;5079998;28;20381;-88
2021/08/04 11:35:43;;;;;;;;;;;;;;;6.20;95.70;99252.31;5100833;28;19950;-88
2021/08/04 11:38:10;;;;;;;;;;;;;;;6.17;95.75;99252.41;5102306;28;20003;-89
2021/08/04 11:40:36;;;;;;;;;;;;;;;6.25;95.02;99253.00;5084215;28;19924;-88
2021/08/04 11:43:02;;;;;;;;;;;;;;;6.23;96.21;99267.13;5085711;28;19977;-89
2021/08/04 11:45:28;;;;;;;;;;;;;;;6.14;96.07;99263.91;5099080;28;19954;-88
2021/08/04 11:47:54;;;;;;;;;;;;;;;6.23;96.31;99265.34;5082129;28;19955;-88
2021/08/04 11:50:20;;;;;;;;;;;;;;;6.20;95.74;99265.47;5097316;28;19977;-87
2021/08/04 11:52:46;;;;;;;;;;;;;;;6.21;95.77;99272.44;5101164;28;19935;-88
2021/08/04 11:55:15;;;;;;;;;;;;;;;6.28;95.46;99268.69;5085417;28;20072;-87
2021/08/04 11:57:46;;;;;;;;;;;;;;;6.24;97.08;99260.94;5082938;28;19928;-86
2021/08/04 12:00:11;;;;;;;;;;;;;;;6.18;96.16;99264.66;5088273;28;19928;-87
2021/08/04 12:02:38;;;;;;;;;;;;;;;6.12;96.61;99264.84;5082681;28;20012;-87
2021/08/04 12:05:06;;;;;;;;;;;;;;;6.20;96.64;99267.25;5099730;28;20302;-87
2021/08/04 12:07:33;;;;;;;;;;;;;;;6.22;95.24;99261.00;5098560;28;20180;-87
2021/08/04 12:09:59;;;;;;;;;;;;;;;6.21;96.04;99253.16;5099758;28;19920;-88
2021/08/04 12:12:31;;;;;;;;;;;;;;;6.20;96.15;99254.94;5087592;28;19920;-87
2021/08/04 12:14:57;;;;;;;;;;;;;;;6.13;95.96;99251.66;5079164;28;19932;-87
2021/08/04 12:17:31;;;;;;;;;;;;;;;6.21;96.11;99251.41;5081681;28;19946;-87
2021/08/04 12:19:57;;;;;;;;;;;;;;;6.19;96.10;99250.59;5099267;28;20294;-87
2021/08/04 12:22:24;;;;;;;;;;;;;;;6.20;97.06;99251.44;5100333;28;19924;-87
2021/08/04 12:24:54;;;;;;;;;;;;;;;6.16;96.53;99255.97;5081062;28;19947;-86
2021/08/04 12:27:33;;;;;;;;;;;;;;;6.27;95.81;99256.47;5097765;28;20318;-87
2021/08/04 12:30:36;;;;;;;;;;;;;;;6.16;96.48;99251.56;5099819;28;19931;-87
2021/08/04 12:33:05;;;;;;;;;;;;;;;6.22;96.09;99244.34;4998308;28;19922;-86
2021/08/04 12:35:38;;;;;;;;;;;;;;;6.18;95.48;99247.09;5083780;28;19920;-88
2021/08/04 12:38:06;;;;;;;;;;;;;;;6.17;96.51;99244.50;5099312;28;19970;-86
2021/08/04 12:40:32;;;;;;;;;;;;;;;6.17;96.88;99241.88;5099073;28;19928;-86
2021/08/04 12:42:57;;;;;;;;;;;;;;;6.16;96.61;99245.44;5098989;28;19920;-87
2021/08/04 12:45:28;;;;;;;;;;;;;;;6.12;96.68;99238.56;5099752;28;20323;-87
2021/08/04 12:47:54;;;;;;;;;;;;;;;6.14;97.35;99236.72;5101788;28;20354;-87
2021/08/04 12:50:21;;;;;;;;;;;;;;;6.09;96.82;99242.13;5085378;28;19920;-87
2021/08/04 12:52:47;;;;;;;;;;;;;;;6.13;98.04;99240.28;5097258;28;19920;-86
2021/08/04 12:55:13;;;;;;;;;;;;;;;6.10;97.31;99235.13;5080957;28;20561;-87
2021/08/04 12:57:39;;;;;;;;;;;;;;;6.03;97.47;99237.09;5092667;28;19919;-86
2021/08/04 13:00:05;;;;;;;;;;;;;;;6.06;98.00;99238.75;5098510;28;20017;-87
2021/08/04 13:02:38;;;;;;;;;;;;;;;6.11;97.40;99239.44;5080846;28;19931;-87
2021/08/04 13:05:04;;;;;;;;;;;;;;;6.08;97.09;99231.66;5098332;28;20283;-85
2021/08/04 13:07:40;;;;;;;;;;;;;;;6.09;96.37;99223.72;5102297;28;19920;-87
2021/08/04 13:10:06;;;;;;;;;;;;;;;6.09;96.28;99218.47;5102020;28;19919;-85
2021/08/04 13:12:33;;;;;;;;;;;;;;;6.07;95.64;99208.91;5102030;28;19916;-87
2021/08/04 13:15:04;;;;;;;;;;;;;;;6.05;96.77;99210.72;5101852;28;20180;-86
2021/08/04 13:17:34;;;;;;;;;;;;;;;6.08;97.08;99215.88;5077617;28;19947;-86
2021/08/04 13:20:10;;;;;;;;;;;;;;;6.03;97.30;99208.16;5097346;28;19924;-87
2021/08/04 13:22:55;;;;;;;;;;;;;;;5.98;97.77;99216.22;5093773;28;20590;-86
2021/08/04 13:25:22;;;;;;;;;;;;;;;6.02;98.44;99216.09;5081405;28;19928;-86
2021/08/04 13:27:57;;;;;;;;;;;;;;;6.01;98.04;99217.84;5093837;28;20211;-86
2021/08/04 13:30:24;;;;;;;;;;;;;;;6.02;98.18;99218.75;5083750;28;19920;-86
2021/08/04 13:32:50;;;;;;;;;;;;;;;6.09;97.08;99223.72;5098315;28;19979;-86
2021/08/04 13:35:16;;;;;;;;;;;;;;;6.05;97.80;99221.25;5080735;28;20291;-86
2021/08/04 13:37:41;;;;;;;;;;;;;;;5.89;98.87;99215.59;5086792;28;19931;-86
2021/08/04 13:40:10;;;;;;;;;;;;;;;6.04;98.46;99217.75;5088043;28;19924;-87
2021/08/04 13:42:36;;;;;;;;;;;;;;;6.09;98.08;99217.59;5096089;28;19925;-86
2021/08/04 13:45:02;;;;;;;;;;;;;;;6.00;98.03;99217.00;5082630;28;19920;-87
2021/08/04 13:47:28;;;;;;;;;;;;;;;6.08;97.74;99210.63;5077172;28;20184;-87
2021/08/04 13:50:01;;;;;;;;;;;;;;;6.07;97.54;99201.88;5077911;28;19931;-87
2021/08/04 13:52:30;;;;;;;;;;;;;;;6.08;98.45;99200.97;5102755;28;19920;-87
2021/08/04 13:54:56;;;;;;;;;;;;;;;6.04;98.35;99204.59;5064320;28;19928;-87
2021/08/04 13:57:21;;;;;;;;;;;;;;;6.08;98.70;99203.59;5082502;28;19932;-88
2021/08/04 13:59:47;;;;;;;;;;;;;;;6.04;97.30;99209.03;5077831;28;19932;-87
2021/08/04 14:02:12;;;;;;;;;;;;;;;6.08;97.07;99202.72;5081899;28;19932;-87
2021/08/04 14:04:40;;;;;;;;;;;;;;;5.98;97.85;99200.44;5082027;28;19932;-87
2021/08/04 14:07:06;;;;;;;;;;;;;;;6.02;97.77;99201.19;5083912;28;19920;-87
2021/08/04 14:09:32;;;;;;;;;;;;;;;6.09;97.68;99196.56;5081693;28;20177;-87
2021/08/04 14:11:57;;;;;;;;;;;;;;;6.07;97.85;99203.66;5081876;28;19920;-87
2021/08/04 14:14:22;;;;;;;;;;;;;;;6.14;97.32;99194.63;5084087;28;19939;-87
2021/08/04 14:16:49;;;;;;;;;;;;;;;6.04;97.86;99198.50;5083960;28;20352;-87
2021/08/04 14:19:14;;;;;;;;;;;;;;;6.03;98.83;99192.38;5101500;28;20034;-87
2021/08/04 14:21:42;;;;;;;;;;;;;;;6.04;98.50;99193.25;5101004;28;20026;-87
2021/08/04 14:24:07;;;;;;;;;;;;;;;6.05;98.39;99189.69;5083834;28;20290;-86
2021/08/04 14:26:33;;;;;;;;;;;;;;;5.99;98.29;99201.28;5083885;28;19963;-86
2021/08/04 14:28:59;;;;;;;;;;;;;;;5.94;98.46;99193.50;5083775;28;19960;-87
2021/08/04 14:31:24;;;;;;;;;;;;;;;6.00;99.20;99195.97;5101890;28;19920;-88
2021/08/04 14:33:50;;;;;;;;;;;;;;;5.92;98.24;99199.72;5100599;28;19951;-87
2021/08/04 14:36:15;;;;;;;;;;;;;;;5.97;98.91;99190.81;5101246;28;19920;-87
2021/08/04 14:38:40;;;;;;;;;;;;;;;6.02;97.97;99197.69;5083831;28;20255;-86
2021/08/04 14:41:06;;;;;;;;;;;;;;;6.07;97.90;99193.13;5101260;28;19924;-86
2021/08/04 14:43:32;;;;;;;;;;;;;;;6.07;98.90;99190.50;5091668;28;19920;-87
2021/08/04 14:45:58;;;;;;;;;;;;;;;6.10;98.21;99187.78;5092339;28;20209;-86
2021/08/04 14:48:23;;;;;;;;;;;;;;;6.01;98.45;99183.66;5100279;28;19967;-86
2021/08/04 14:50:48;;;;;;;;;;;;;;;6.05;98.49;99189.69;5083465;28;20289;-87
2021/08/04 14:53:14;;;;;;;;;;;;;;;6.06;98.12;99189.63;5101443;28;19920;-87
2021/08/04 14:55:39;;;;;;;;;;;;;;;6.09;97.45;99186.91;5093507;28;19921;-87
2021/08/04 14:58:04;;;;;;;;;;;;;;;6.13;96.74;99198.19;5097795;28;19920;-86
2021/08/04 15:00:30;;;;;;;;;;;;;;;6.03;97.50;99200.28;5083365;28;19947;-87
2021/08/04 15:02:55;;;;;;;;;;;;;;;6.17;96.63;99195.41;5082805;28;19920;-87
2021/08/04 15:05:21;;;;;;;;;;;;;;;6.20;96.99;99183.91;5099262;28;19985;-87
2021/08/04 15:07:46;;;;;;;;;;;;;;;6.15;96.73;99175.31;5100242;28;20314;-87
2021/08/04 15:10:13;;;;;;;;;;;;;;;6.07;98.06;99178.19;5083121;28;20198;-87
2021/08/04 15:12:39;;;;;;;;;;;;;;;6.07;98.66;99174.72;5073191;28;19982;-87
2021/08/04 15:15:05;;;;;;;;;;;;;;;6.18;97.66;99180.47;5098084;28;20298;-86
2021/08/04 15:17:32;;;;;;;;;;;;;;;6.11;98.32;99184.22;5088404;28;19920;-87
2021/08/04 15:19:58;;;;;;;;;;;;;;;6.09;97.74;99176.38;5089956;28;20349;-86
2021/08/04 15:22:24;;;;;;;;;;;;;;;6.17;98.12;99171.72;5079986;28;19920;-86
2021/08/04 15:24:49;;;;;;;;;;;;;;;6.26;97.89;99169.69;5082241;28;20007;-86
2021/08/04 15:27:15;;;;;;;;;;;;;;;6.10;96.88;99172.00;5097337;28;20313;-86
2021/08/04 15:29:40;;;;;;;;;;;;;;;6.07;97.34;99167.69;5099789;28;19920;-86
2021/08/04 15:32:05;;;;;;;;;;;;;;;6.15;97.36;99170.06;5082540;28;19920;-86
2021/08/04 15:34:31;;;;;;;;;;;;;;;6.13;97.84;99167.47;5081342;28;19987;-86
2021/08/04 15:36:57;;;;;;;;;;;;;;;6.10;97.97;99164.09;5097962;28;19921;-86
2021/08/04 15:39:22;;;;;;;;;;;;;;;6.11;98.33;99165.81;5098592;28;19939;-86
2021/08/04 15:41:47;;;;;;;;;;;;;;;6.05;98.92;99169.50;5081149;28;19931;-86
2021/08/04 15:44:14;;;;;;;;;;;;;;;6.18;97.21;99164.69;5099300;28;19939;-86
2021/08/04 15:46:43;;;;;;;;;;;;;;;6.13;97.20;99170.09;5098809;28;19920;-86
2021/08/04 15:49:08;;;;;;;;;;;;;;;6.17;97.38;99173.47;5099602;28;20199;-87
2021/08/04 15:51:34;;;;;;;;;;;;;;;6.12;97.38;99164.91;5101224;28;19931;-86
2021/08/04 15:54:00;;;;;;;;;;;;;;;6.14;98.07;99169.22;5078655;28;20276;-86
2021/08/04 15:56:25;;;;;;;;;;;;;;;6.15;97.83;99164.78;5083115;28;20347;-86
2021/08/04 15:58:51;;;;;;;;;;;;;;;6.16;97.67;99159.47;5097994;28;20042;-86
2021/08/04 16:01:16;;;;;;;;;;;;;;;6.13;97.78;99158.75;5094293;28;19951;-86
2021/08/04 16:03:42;;;;;;;;;;;;;;;6.09;99.09;99149.22;5078150;28;20295;-86
2021/08/04 16:06:08;;;;;;;;;;;;;;;6.16;97.93;99151.59;5083435;28;20298;-87
2021/08/04 16:08:33;;;;;;;;;;;;;;;6.06;97.74;99149.31;5081514;28;19954;-86
2021/08/04 16:10:59;;;;;;;;;;;;;;;6.09;98.16;99146.59;5081719;28;19930;-87
2021/08/04 16:13:24;;;;;;;;;;;;;;;6.20;97.41;99151.47;5099806;28;20309;-86
2021/08/04 16:15:49;;;;;;;;;;;;;;;6.22;95.98;99147.88;5083770;28;20011;-86
2021/08/04 16:18:15;;;;;;;;;;;;;;;6.09;97.21;99146.59;5086898;28;19920;-86
2021/08/04 16:20:41;;;;;;;;;;;;;;;6.14;96.81;99145.53;5088005;28;20222;-86
2021/08/04 16:23:06;;;;;;;;;;;;;;;6.15;95.95;99136.72;5098140;28;19920;-87
2021/08/04 16:25:32;;;;;;;;;;;;;;;6.15;95.86;99139.34;5081097;28;20052;-87
2021/08/04 16:27:58;;;;;;;;;;;;;;;6.10;96.03;99129.91;5099430;28;20184;-87
2021/08/04 16:30:24;;;;;;;;;;;;;;;6.15;96.75;99133.22;5098394;28;19990;-86
2021/08/04 16:32:53;;;;;;;;;;;;;;;6.20;96.70;99139.19;5097911;28;20265;-86
2021/08/04 16:35:20;;;;;;;;;;;;;;;6.08;95.78;99132.59;5080095;28;20312;-86
2021/08/04 16:37:48;;;;;;;;;;;;;;;6.14;96.57;99140.28;5096796;28;20227;-85
2021/08/04 16:40:14;;;;;;;;;;;;;;;6.11;96.69;99135.13;5096981;28;20302;-86
2021/08/04 16:42:40;;;;;;;;;;;;;;;6.22;97.81;99133.88;5079396;28;19920;-84
2021/08/04 16:45:07;;;;;;;;;;;;;;;6.15;97.46;99139.34;5098284;28;19920;-86
2021/08/04 16:47:36;;;;;;;;;;;;;;;6.15;98.04;99138.50;5092616;28;19924;-87
2021/08/04 16:50:10;;;;;;;;;;;;;;;6.17;98.30;99137.53;5080291;28;19921;-88
2021/08/04 16:52:36;;;;;;;;;;;;;;;6.13;98.52;99132.44;5074041;28;19920;-85
2021/08/04 16:55:04;;;;;;;;;;;;;;;8.41;92.18;99123.41;5064961;28;19928;-86
2021/08/04 16:57:53;;;;;;;;;;;;;;;6.71;100.00;99124.19;5080305;28;19974;-86
2021/08/04 17:00:41;;;;;;;;;;;;;;;6.49;100.00;99121.47;5090883;28;19924;-86
2021/08/04 17:03:04;;;;;;;;;;;;;;;6.38;100.00;99123.66;5094281;28;19920;-86
2021/08/04 17:05:30;;;;;;;;;;;;;;;6.30;99.83;99111.66;5078565;28;19920;-85
2021/08/04 17:07:55;;;;;;;;;;;;;;;6.24;99.61;99116.25;5098154;28;19939;-86
2021/08/04 17:10:20;;;;;;;;;;;;;;;6.22;98.99;99116.28;5085956;28;19920;-84
2021/08/04 17:12:46;;;;;;;;;;;;;;;6.21;99.41;99111.97;5080085;28;19919;-86
2021/08/04 17:15:14;;;;;;;;;;;;;;;6.13;99.64;99114.88;5097054;28;19984;-85
2021/08/04 17:17:39;;;;;;;;;;;;;;;6.16;99.74;99113.91;5077279;28;19932;-86
2021/08/04 17:20:16;;;;;;;;;;;;;;;6.20;98.97;99115.50;5093373;28;20667;-87
2021/08/04 17:22:48;;;;;;;;;;;;;;;6.25;98.45;99113.56;5062032;28;21906;-85
2021/08/04 17:25:13;;;;;;;;;;;;;;;6.21;98.76;99111.97;5078045;28;20349;-85
2021/08/04 17:27:39;;;;;;;;;;;;;;;6.11;99.10;99121.97;5097695;28;20004;-86
2021/08/04 17:30:05;;;;;;;;;;;;;;;6.12;98.30;99117.56;5075671;28;19942;-85
2021/08/04 17:32:31;;;;;;;;;;;;;;;6.11;99.17;99121.09;5074294;28;19951;-85
2021/08/04 17:34:56;;;;;;;;;;;;;;;6.07;99.40;99115.06;5077586;28;20262;-85
2021/08/04 17:37:23;;;;;;;;;;;;;;;6.05;99.61;99122.19;5097839;28;19930;-86
2021/08/04 17:39:55;;;;;;;;;;;;;;;6.10;99.48;99114.97;5096910;28;19943;-86
2021/08/04 17:42:20;;;;;;;;;;;;;;;6.07;98.99;99119.50;5096066;28;20011;-85
2021/08/04 17:44:47;;;;;;;;;;;;;;;6.08;99.68;99118.56;5094819;28;19959;-86
2021/08/04 17:47:13;;;;;;;;;;;;;;;6.08;99.98;99123.81;5089707;28;19965;-86
2021/08/04 17:49:40;;;;;;;;;;;;;;;6.13;98.93;99125.38;5094699;28;19920;-84
2021/08/04 17:52:10;;;;;;;;;;;;;;;5.97;99.43;99124.22;5080582;28;20361;-85
2021/08/04 17:54:39;;;;;;;;;;;;;;;6.05;100.00;99126.56;5095499;28;19931;-86
2021/08/04 17:57:04;;;;;;;;;;;;;;;6.14;99.39;99128.88;5081292;28;19920;-85
2021/08/04 17:59:30;;;;;;;;;;;;;;;5.99;99.64;99125.00;5079659;28;19931;-86
2021/08/04 18:01:56;;;;;;;;;;;;;;;6.03;100.00;99131.00;5079555;28;19920;-86
2021/08/04 18:04:27;;;;;;;;;;;;;;;6.03;100.00;99124.00;5093996;28;19924;-85
2021/08/04 18:06:53;;;;;;;;;;;;;;;5.99;100.00;99120.59;5079769;28;19930;-86
2021/08/04 18:09:21;;;;;;;;;;;;;;;6.09;100.00;99123.75;5078541;28;19920;-85
2021/08/04 18:11:47;;;;;;;;;;;;;;;6.06;100.00;99128.28;5094306;28;19920;-86
2021/08/04 18:14:13;;;;;;;;;;;;;;;6.06;100.00;99128.28;5082971;28;20202;-83
